sensor_id;sensor_type;location;lat;lon;timestamp;P1;durP1;ratioP1;P2;durP2;ratioP2
54235;SDS011;40151;43.606;1.472;2023-06-10T00:02:10;3.20;;;1.15;;
54235;SDS011;40151;43.606;1.472;2023-06-10T00:04:35;1.70;;;0.73;;
54235;SDS011;40151;43.606;1.472;2023-06-10T00:07:02;2.47;;;0.82;;
54235;SDS011;40151;43.606;1.472;2023-06-10T00:09:34;3.10;;;1.10;;
54235;SDS011;40151;43.606;1.472;2023-06-10T00:12:01;1.50;;;0.70;;
54235;SDS011;40151;43.606;1.472;2023-06-10T00:14:27;3.10;;;0.93;;
54235;SDS011;40151;43.606;1.472;2023-06-10T00:16:53;3.05;;;0.98;;
54235;SDS011;40151;43.606;1.472;2023-06-10T00:19:18;2.17;;;1.08;;
54235;SDS011;40151;43.606;1.472;2023-06-10T00:21:44;2.78;;;0.90;;
54235;SDS011;40151;43.606;1.472;2023-06-10T00:24:10;3.22;;;0.95;;
54235;SDS011;40151;43.606;1.472;2023-06-10T00:26:37;2.65;;;1.00;;
54235;SDS011;40151;43.606;1.472;2023-06-10T00:29:04;2.78;;;0.95;;
54235;SDS011;40151;43.606;1.472;2023-06-10T00:31:30;2.60;;;0.80;;
54235;SDS011;40151;43.606;1.472;2023-06-10T00:33:55;1.48;;;0.70;;
54235;SDS011;40151;43.606;1.472;2023-06-10T00:36:21;4.25;;;1.10;;
54235;SDS011;40151;43.606;1.472;2023-06-10T00:38:46;2.50;;;1.10;;
54235;SDS011;40151;43.606;1.472;2023-06-10T00:41:12;1.90;;;0.77;;
54235;SDS011;40151;43.606;1.472;2023-06-10T00:43:37;1.85;;;0.73;;
54235;SDS011;40151;43.606;1.472;2023-06-10T00:46:03;2.28;;;1.27;;
54235;SDS011;40151;43.606;1.472;2023-06-10T00:48:28;2.35;;;1.08;;
54235;SDS011;40151;43.606;1.472;2023-06-10T00:50:54;2.50;;;0.90;;
54235;SDS011;40151;43.606;1.472;2023-06-10T00:53:19;1.92;;;0.95;;
54235;SDS011;40151;43.606;1.472;2023-06-10T00:55:47;4.28;;;0.80;;
54235;SDS011;40151;43.606;1.472;2023-06-10T00:58:12;0.85;;;0.63;;
54235;SDS011;40151;43.606;1.472;2023-06-10T01:00:38;3.38;;;0.90;;
54235;SDS011;40151;43.606;1.472;2023-06-10T01:03:04;2.40;;;0.98;;
54235;SDS011;40151;43.606;1.472;2023-06-10T01:05:36;2.65;;;0.80;;
54235;SDS011;40151;43.606;1.472;2023-06-10T01:10:54;2.20;;;0.82;;
54235;SDS011;40151;43.606;1.472;2023-06-10T01:13:25;2.83;;;0.63;;
54235;SDS011;40151;43.606;1.472;2023-06-10T01:15:54;1.92;;;0.80;;
54235;SDS011;40151;43.606;1.472;2023-06-10T01:18:21;2.10;;;0.90;;
54235;SDS011;40151;43.606;1.472;2023-06-10T01:20:46;1.40;;;0.60;;
54235;SDS011;40151;43.606;1.472;2023-06-10T01:23:13;2.58;;;0.80;;
54235;SDS011;40151;43.606;1.472;2023-06-10T01:25:40;2.60;;;0.70;;
54235;SDS011;40151;43.606;1.472;2023-06-10T01:33:33;2.65;;;1.08;;
54235;SDS011;40151;43.606;1.472;2023-06-10T01:36:01;3.03;;;0.70;;
54235;SDS011;40151;43.606;1.472;2023-06-10T01:38:30;2.13;;;0.80;;
54235;SDS011;40151;43.606;1.472;2023-06-10T01:40:58;4.57;;;1.08;;
54235;SDS011;40151;43.606;1.472;2023-06-10T01:43:24;2.53;;;0.80;;
54235;SDS011;40151;43.606;1.472;2023-06-10T01:45:50;1.55;;;0.80;;
54235;SDS011;40151;43.606;1.472;2023-06-10T01:48:16;5.03;;;0.80;;
54235;SDS011;40151;43.606;1.472;2023-06-10T01:50:41;1.65;;;0.65;;
54235;SDS011;40151;43.606;1.472;2023-06-10T01:53:08;1.90;;;0.70;;
54235;SDS011;40151;43.606;1.472;2023-06-10T01:55:34;1.58;;;0.65;;
54235;SDS011;40151;43.606;1.472;2023-06-10T01:57:59;2.47;;;0.80;;
54235;SDS011;40151;43.606;1.472;2023-06-10T02:00:25;2.55;;;0.65;;
54235;SDS011;40151;43.606;1.472;2023-06-10T02:02:50;2.78;;;0.77;;
54235;SDS011;40151;43.606;1.472;2023-06-10T02:05:15;2.33;;;0.50;;
54235;SDS011;40151;43.606;1.472;2023-06-10T02:07:41;2.88;;;0.63;;
54235;SDS011;40151;43.606;1.472;2023-06-10T02:10:07;1.80;;;0.80;;
54235;SDS011;40151;43.606;1.472;2023-06-10T02:12:33;2.28;;;0.60;;
54235;SDS011;40151;43.606;1.472;2023-06-10T02:14:58;1.70;;;0.70;;
54235;SDS011;40151;43.606;1.472;2023-06-10T02:17:24;2.65;;;0.90;;
54235;SDS011;40151;43.606;1.472;2023-06-10T02:19:49;3.10;;;0.93;;
54235;SDS011;40151;43.606;1.472;2023-06-10T02:22:19;2.03;;;0.80;;
54235;SDS011;40151;43.606;1.472;2023-06-10T02:24:45;2.20;;;0.63;;
54235;SDS011;40151;43.606;1.472;2023-06-10T02:27:11;4.25;;;0.90;;
54235;SDS011;40151;43.606;1.472;2023-06-10T02:29:36;2.17;;;0.70;;
54235;SDS011;40151;43.606;1.472;2023-06-10T02:32:02;2.80;;;0.80;;
54235;SDS011;40151;43.606;1.472;2023-06-10T02:34:28;3.25;;;0.60;;
54235;SDS011;40151;43.606;1.472;2023-06-10T02:36:53;2.08;;;0.68;;
54235;SDS011;40151;43.606;1.472;2023-06-10T02:39:19;1.58;;;0.68;;
54235;SDS011;40151;43.606;1.472;2023-06-10T02:41:44;2.83;;;0.75;;
54235;SDS011;40151;43.606;1.472;2023-06-10T02:44:10;0.95;;;0.68;;
54235;SDS011;40151;43.606;1.472;2023-06-10T02:46:35;2.38;;;0.73;;
54235;SDS011;40151;43.606;1.472;2023-06-10T02:49:00;2.25;;;1.20;;
54235;SDS011;40151;43.606;1.472;2023-06-10T02:51:26;3.65;;;1.52;;
54235;SDS011;40151;43.606;1.472;2023-06-10T02:53:52;2.90;;;0.80;;
54235;SDS011;40151;43.606;1.472;2023-06-10T02:56:18;2.00;;;0.80;;
54235;SDS011;40151;43.606;1.472;2023-06-10T02:58:43;4.15;;;0.95;;
54235;SDS011;40151;43.606;1.472;2023-06-10T03:01:09;2.60;;;1.08;;
54235;SDS011;40151;43.606;1.472;2023-06-10T03:03:35;1.92;;;0.77;;
54235;SDS011;40151;43.606;1.472;2023-06-10T03:06:01;3.30;;;0.70;;
54235;SDS011;40151;43.606;1.472;2023-06-10T03:08:27;3.33;;;0.70;;
54235;SDS011;40151;43.606;1.472;2023-06-10T03:10:53;3.30;;;0.95;;
54235;SDS011;40151;43.606;1.472;2023-06-10T03:13:19;1.38;;;0.60;;
54235;SDS011;40151;43.606;1.472;2023-06-10T03:15:44;3.38;;;0.90;;
54235;SDS011;40151;43.606;1.472;2023-06-10T03:18:11;2.53;;;0.80;;
54235;SDS011;40151;43.606;1.472;2023-06-10T03:20:36;1.80;;;0.80;;
54235;SDS011;40151;43.606;1.472;2023-06-10T03:23:03;2.60;;;0.95;;
54235;SDS011;40151;43.606;1.472;2023-06-10T03:25:31;2.15;;;0.75;;
54235;SDS011;40151;43.606;1.472;2023-06-10T03:27:56;2.30;;;0.80;;
54235;SDS011;40151;43.606;1.472;2023-06-10T03:30:22;3.33;;;1.10;;
54235;SDS011;40151;43.606;1.472;2023-06-10T03:32:47;3.42;;;0.80;;
54235;SDS011;40151;43.606;1.472;2023-06-10T03:35:14;2.47;;;0.93;;
54235;SDS011;40151;43.606;1.472;2023-06-10T03:37:40;2.60;;;0.95;;
54235;SDS011;40151;43.606;1.472;2023-06-10T03:40:06;2.35;;;0.65;;
54235;SDS011;40151;43.606;1.472;2023-06-10T03:42:33;2.67;;;0.77;;
54235;SDS011;40151;43.606;1.472;2023-06-10T03:44:59;1.88;;;0.70;;
54235;SDS011;40151;43.606;1.472;2023-06-10T03:47:24;2.40;;;0.90;;
54235;SDS011;40151;43.606;1.472;2023-06-10T03:49:49;3.63;;;0.93;;
54235;SDS011;40151;43.606;1.472;2023-06-10T03:52:15;2.70;;;0.77;;
54235;SDS011;40151;43.606;1.472;2023-06-10T03:54:40;2.22;;;0.80;;
54235;SDS011;40151;43.606;1.472;2023-06-10T03:57:06;3.50;;;0.90;;
54235;SDS011;40151;43.606;1.472;2023-06-10T03:59:31;2.47;;;1.00;;
54235;SDS011;40151;43.606;1.472;2023-06-10T04:01:57;3.78;;;0.82;;
54235;SDS011;40151;43.606;1.472;2023-06-10T04:04:23;3.97;;;1.05;;
54235;SDS011;40151;43.606;1.472;2023-06-10T04:06:48;2.08;;;0.70;;
54235;SDS011;40151;43.606;1.472;2023-06-10T04:09:14;4.38;;;0.93;;
54235;SDS011;40151;43.606;1.472;2023-06-10T04:11:41;2.05;;;0.75;;
54235;SDS011;40151;43.606;1.472;2023-06-10T04:14:07;1.70;;;0.63;;
54235;SDS011;40151;43.606;1.472;2023-06-10T04:16:33;2.30;;;0.80;;
54235;SDS011;40151;43.606;1.472;2023-06-10T04:18:59;2.55;;;0.90;;
54235;SDS011;40151;43.606;1.472;2023-06-10T04:21:25;2.15;;;0.90;;
54235;SDS011;40151;43.606;1.472;2023-06-10T04:23:51;3.65;;;1.00;;
54235;SDS011;40151;43.606;1.472;2023-06-10T04:26:17;2.13;;;0.90;;
54235;SDS011;40151;43.606;1.472;2023-06-10T04:28:43;2.67;;;0.80;;
54235;SDS011;40151;43.606;1.472;2023-06-10T04:31:08;2.20;;;0.82;;
54235;SDS011;40151;43.606;1.472;2023-06-10T04:33:35;1.65;;;0.65;;
54235;SDS011;40151;43.606;1.472;2023-06-10T04:36:01;3.80;;;0.70;;
54235;SDS011;40151;43.606;1.472;2023-06-10T04:38:26;2.13;;;0.70;;
54235;SDS011;40151;43.606;1.472;2023-06-10T04:40:52;2.88;;;0.80;;
54235;SDS011;40151;43.606;1.472;2023-06-10T04:43:17;4.13;;;0.90;;
54235;SDS011;40151;43.606;1.472;2023-06-10T04:45:43;2.38;;;0.75;;
54235;SDS011;40151;43.606;1.472;2023-06-10T04:48:09;2.30;;;0.75;;
54235;SDS011;40151;43.606;1.472;2023-06-10T04:50:35;4.35;;;0.85;;
54235;SDS011;40151;43.606;1.472;2023-06-10T04:53:01;3.40;;;0.88;;
54235;SDS011;40151;43.606;1.472;2023-06-10T04:55:27;1.08;;;0.70;;
54235;SDS011;40151;43.606;1.472;2023-06-10T04:57:52;2.50;;;0.60;;
54235;SDS011;40151;43.606;1.472;2023-06-10T05:00:17;1.27;;;0.75;;
54235;SDS011;40151;43.606;1.472;2023-06-10T05:02:43;4.55;;;1.05;;
54235;SDS011;40151;43.606;1.472;2023-06-10T05:05:09;2.80;;;0.95;;
54235;SDS011;40151;43.606;1.472;2023-06-10T05:07:35;1.92;;;0.80;;
54235;SDS011;40151;43.606;1.472;2023-06-10T05:10:00;2.22;;;0.93;;
54235;SDS011;40151;43.606;1.472;2023-06-10T05:12:26;3.50;;;1.00;;
54235;SDS011;40151;43.606;1.472;2023-06-10T05:14:51;2.92;;;0.80;;
54235;SDS011;40151;43.606;1.472;2023-06-10T05:17:17;5.45;;;0.90;;
54235;SDS011;40151;43.606;1.472;2023-06-10T05:19:43;1.73;;;0.70;;
54235;SDS011;40151;43.606;1.472;2023-06-10T05:22:09;2.45;;;0.90;;
54235;SDS011;40151;43.606;1.472;2023-06-10T05:24:34;2.17;;;0.82;;
54235;SDS011;40151;43.606;1.472;2023-06-10T05:27:00;2.38;;;1.00;;
54235;SDS011;40151;43.606;1.472;2023-06-10T05:29:25;5.13;;;1.30;;
54235;SDS011;40151;43.606;1.472;2023-06-10T05:31:50;2.22;;;0.90;;
54235;SDS011;40151;43.606;1.472;2023-06-10T05:34:16;3.40;;;0.65;;
54235;SDS011;40151;43.606;1.472;2023-06-10T05:36:41;2.20;;;0.90;;
54235;SDS011;40151;43.606;1.472;2023-06-10T05:39:09;3.72;;;0.90;;
54235;SDS011;40151;43.606;1.472;2023-06-10T05:41:34;1.48;;;0.80;;
54235;SDS011;40151;43.606;1.472;2023-06-10T05:44:00;1.30;;;0.75;;
54235;SDS011;40151;43.606;1.472;2023-06-10T05:46:25;3.95;;;0.60;;
54235;SDS011;40151;43.606;1.472;2023-06-10T05:48:50;2.42;;;0.73;;
54235;SDS011;40151;43.606;1.472;2023-06-10T05:51:16;2.45;;;0.90;;
54235;SDS011;40151;43.606;1.472;2023-06-10T05:53:41;1.73;;;0.82;;
54235;SDS011;40151;43.606;1.472;2023-06-10T05:56:07;4.03;;;1.08;;
54235;SDS011;40151;43.606;1.472;2023-06-10T05:58:32;1.90;;;0.98;;
54235;SDS011;40151;43.606;1.472;2023-06-10T06:00:58;3.47;;;1.00;;
54235;SDS011;40151;43.606;1.472;2023-06-10T06:03:23;3.65;;;1.00;;
54235;SDS011;40151;43.606;1.472;2023-06-10T06:05:49;2.55;;;0.80;;
54235;SDS011;40151;43.606;1.472;2023-06-10T06:08:14;4.90;;;0.82;;
54235;SDS011;40151;43.606;1.472;2023-06-10T06:10:43;5.15;;;1.15;;
54235;SDS011;40151;43.606;1.472;2023-06-10T06:13:09;2.95;;;1.00;;
54235;SDS011;40151;43.606;1.472;2023-06-10T06:15:35;4.60;;;1.00;;
54235;SDS011;40151;43.606;1.472;2023-06-10T06:18:00;4.05;;;1.20;;
54235;SDS011;40151;43.606;1.472;2023-06-10T06:20:25;8.23;;;1.48;;
54235;SDS011;40151;43.606;1.472;2023-06-10T06:22:51;7.00;;;1.52;;
54235;SDS011;40151;43.606;1.472;2023-06-10T06:25:16;6.35;;;1.50;;
54235;SDS011;40151;43.606;1.472;2023-06-10T06:27:41;11.52;;;2.20;;
54235;SDS011;40151;43.606;1.472;2023-06-10T06:30:07;5.18;;;1.30;;
54235;SDS011;40151;43.606;1.472;2023-06-10T06:32:33;8.93;;;1.20;;
54235;SDS011;40151;43.606;1.472;2023-06-10T06:34:58;6.65;;;1.42;;
54235;SDS011;40151;43.606;1.472;2023-06-10T06:37:24;6.80;;;1.40;;
54235;SDS011;40151;43.606;1.472;2023-06-10T06:39:50;7.15;;;1.90;;
54235;SDS011;40151;43.606;1.472;2023-06-10T06:42:16;4.40;;;1.63;;
54235;SDS011;40151;43.606;1.472;2023-06-10T06:44:42;5.55;;;1.38;;
54235;SDS011;40151;43.606;1.472;2023-06-10T06:47:08;5.45;;;1.85;;
54235;SDS011;40151;43.606;1.472;2023-06-10T06:49:34;8.93;;;1.80;;
54235;SDS011;40151;43.606;1.472;2023-06-10T06:51:59;5.85;;;1.80;;
54235;SDS011;40151;43.606;1.472;2023-06-10T06:54:24;3.42;;;1.25;;
54235;SDS011;40151;43.606;1.472;2023-06-10T06:56:50;5.35;;;1.38;;
54235;SDS011;40151;43.606;1.472;2023-06-10T06:59:15;4.32;;;1.33;;
54235;SDS011;40151;43.606;1.472;2023-06-10T07:01:44;5.18;;;1.33;;
54235;SDS011;40151;43.606;1.472;2023-06-10T07:04:10;5.72;;;1.60;;
54235;SDS011;40151;43.606;1.472;2023-06-10T07:06:35;4.72;;;1.38;;
54235;SDS011;40151;43.606;1.472;2023-06-10T07:09:01;3.13;;;1.20;;
54235;SDS011;40151;43.606;1.472;2023-06-10T07:11:26;3.92;;;1.10;;
54235;SDS011;40151;43.606;1.472;2023-06-10T07:13:52;3.42;;;1.30;;
54235;SDS011;40151;43.606;1.472;2023-06-10T07:16:17;6.10;;;1.38;;
54235;SDS011;40151;43.606;1.472;2023-06-10T07:18:45;3.60;;;1.10;;
54235;SDS011;40151;43.606;1.472;2023-06-10T07:21:11;3.58;;;1.20;;
54235;SDS011;40151;43.606;1.472;2023-06-10T07:23:36;3.67;;;1.30;;
54235;SDS011;40151;43.606;1.472;2023-06-10T07:26:01;4.28;;;1.45;;
54235;SDS011;40151;43.606;1.472;2023-06-10T07:28:27;3.38;;;1.42;;
54235;SDS011;40151;43.606;1.472;2023-06-10T07:30:52;4.80;;;1.50;;
54235;SDS011;40151;43.606;1.472;2023-06-10T07:33:18;3.00;;;1.08;;
54235;SDS011;40151;43.606;1.472;2023-06-10T07:35:43;3.63;;;1.20;;
54235;SDS011;40151;43.606;1.472;2023-06-10T07:38:08;3.80;;;1.17;;
54235;SDS011;40151;43.606;1.472;2023-06-10T07:40:34;3.55;;;1.13;;
54235;SDS011;40151;43.606;1.472;2023-06-10T07:42:59;2.95;;;1.10;;
54235;SDS011;40151;43.606;1.472;2023-06-10T07:45:25;2.25;;;1.25;;
54235;SDS011;40151;43.606;1.472;2023-06-10T07:47:50;2.25;;;1.10;;
54235;SDS011;40151;43.606;1.472;2023-06-10T07:50:16;2.10;;;0.98;;
54235;SDS011;40151;43.606;1.472;2023-06-10T07:52:41;2.28;;;0.93;;
54235;SDS011;40151;43.606;1.472;2023-06-10T07:55:07;3.65;;;1.40;;
54235;SDS011;40151;43.606;1.472;2023-06-10T07:57:32;3.20;;;1.15;;
54235;SDS011;40151;43.606;1.472;2023-06-10T08:00:01;3.00;;;1.10;;
54235;SDS011;40151;43.606;1.472;2023-06-10T08:02:31;2.38;;;1.17;;
54235;SDS011;40151;43.606;1.472;2023-06-10T08:04:56;4.32;;;1.70;;
54235;SDS011;40151;43.606;1.472;2023-06-10T08:07:21;2.85;;;1.20;;
54235;SDS011;40151;43.606;1.472;2023-06-10T08:09:47;3.83;;;1.20;;
54235;SDS011;40151;43.606;1.472;2023-06-10T08:12:12;3.53;;;1.40;;
54235;SDS011;40151;43.606;1.472;2023-06-10T08:14:38;2.78;;;0.90;;
54235;SDS011;40151;43.606;1.472;2023-06-10T08:17:04;3.55;;;1.17;;
54235;SDS011;40151;43.606;1.472;2023-06-10T08:19:31;2.97;;;1.30;;
54235;SDS011;40151;43.606;1.472;2023-06-10T08:21:56;2.72;;;1.30;;
54235;SDS011;40151;43.606;1.472;2023-06-10T08:24:22;1.80;;;1.10;;
54235;SDS011;40151;43.606;1.472;2023-06-10T08:26:47;2.28;;;1.42;;
54235;SDS011;40151;43.606;1.472;2023-06-10T08:29:13;4.13;;;1.15;;
54235;SDS011;40151;43.606;1.472;2023-06-10T08:31:42;3.67;;;1.15;;
54235;SDS011;40151;43.606;1.472;2023-06-10T08:34:08;3.47;;;1.50;;
54235;SDS011;40151;43.606;1.472;2023-06-10T08:36:34;1.95;;;1.10;;
54235;SDS011;40151;43.606;1.472;2023-06-10T08:38:59;4.22;;;1.15;;
54235;SDS011;40151;43.606;1.472;2023-06-10T08:41:25;1.90;;;1.10;;
54235;SDS011;40151;43.606;1.472;2023-06-10T08:44:04;3.08;;;1.27;;
54235;SDS011;40151;43.606;1.472;2023-06-10T08:46:37;2.67;;;1.35;;
54235;SDS011;40151;43.606;1.472;2023-06-10T08:49:05;4.25;;;1.30;;
54235;SDS011;40151;43.606;1.472;2023-06-10T08:51:34;4.95;;;1.20;;
54235;SDS011;40151;43.606;1.472;2023-06-10T08:54:02;2.35;;;1.15;;
54235;SDS011;40151;43.606;1.472;2023-06-10T08:56:34;2.28;;;1.25;;
54235;SDS011;40151;43.606;1.472;2023-06-10T08:59:03;2.97;;;1.20;;
54235;SDS011;40151;43.606;1.472;2023-06-10T09:01:30;2.85;;;1.45;;
54235;SDS011;40151;43.606;1.472;2023-06-10T09:03:56;2.45;;;1.40;;
54235;SDS011;40151;43.606;1.472;2023-06-10T09:06:23;6.03;;;1.40;;
54235;SDS011;40151;43.606;1.472;2023-06-10T09:08:50;3.40;;;1.52;;
54235;SDS011;40151;43.606;1.472;2023-06-10T09:11:15;3.17;;;1.48;;
54235;SDS011;40151;43.606;1.472;2023-06-10T09:13:41;4.28;;;1.35;;
54235;SDS011;40151;43.606;1.472;2023-06-10T09:16:07;4.85;;;1.60;;
54235;SDS011;40151;43.606;1.472;2023-06-10T09:18:32;6.55;;;1.42;;
54235;SDS011;40151;43.606;1.472;2023-06-10T09:20:59;5.90;;;1.40;;
54235;SDS011;40151;43.606;1.472;2023-06-10T09:23:25;3.30;;;1.20;;
54235;SDS011;40151;43.606;1.472;2023-06-10T09:25:57;5.50;;;1.63;;
54235;SDS011;40151;43.606;1.472;2023-06-10T09:28:23;6.38;;;1.40;;
54235;SDS011;40151;43.606;1.472;2023-06-10T09:30:49;7.57;;;1.65;;
54235;SDS011;40151;43.606;1.472;2023-06-10T09:33:15;13.95;;;2.15;;
54235;SDS011;40151;43.606;1.472;2023-06-10T09:35:47;6.40;;;2.05;;
54235;SDS011;40151;43.606;1.472;2023-06-10T09:38:20;8.48;;;1.90;;
54235;SDS011;40151;43.606;1.472;2023-06-10T09:40:53;7.07;;;2.35;;
54235;SDS011;40151;43.606;1.472;2023-06-10T09:43:20;5.78;;;2.20;;
54235;SDS011;40151;43.606;1.472;2023-06-10T09:45:49;6.30;;;1.90;;
54235;SDS011;40151;43.606;1.472;2023-06-10T09:48:17;7.28;;;2.35;;
54235;SDS011;40151;43.606;1.472;2023-06-10T09:50:43;5.47;;;2.30;;
54235;SDS011;40151;43.606;1.472;2023-06-10T09:53:10;5.18;;;1.98;;
54235;SDS011;40151;43.606;1.472;2023-06-10T09:55:39;6.22;;;2.42;;
54235;SDS011;40151;43.606;1.472;2023-06-10T09:58:05;5.53;;;2.40;;
54235;SDS011;40151;43.606;1.472;2023-06-10T10:00:34;4.82;;;2.20;;
54235;SDS011;40151;43.606;1.472;2023-06-10T10:03:00;5.25;;;2.65;;
54235;SDS011;40151;43.606;1.472;2023-06-10T10:05:26;6.50;;;2.47;;
54235;SDS011;40151;43.606;1.472;2023-06-10T10:07:52;6.18;;;2.05;;
54235;SDS011;40151;43.606;1.472;2023-06-10T10:10:20;4.57;;;2.15;;
54235;SDS011;40151;43.606;1.472;2023-06-10T10:12:47;5.07;;;2.08;;
54235;SDS011;40151;43.606;1.472;2023-06-10T10:15:13;4.13;;;2.03;;
54235;SDS011;40151;43.606;1.472;2023-06-10T10:20:31;4.90;;;2.10;;
54235;SDS011;40151;43.606;1.472;2023-06-10T10:22:59;7.50;;;1.95;;
54235;SDS011;40151;43.606;1.472;2023-06-10T10:25:29;5.90;;;1.95;;
54235;SDS011;40151;43.606;1.472;2023-06-10T10:28:06;5.05;;;1.75;;
54235;SDS011;40151;43.606;1.472;2023-06-10T10:30:37;3.78;;;1.85;;
54235;SDS011;40151;43.606;1.472;2023-06-10T10:35:56;5.80;;;3.13;;
54235;SDS011;40151;43.606;1.472;2023-06-10T10:38:23;5.78;;;2.28;;
54235;SDS011;40151;43.606;1.472;2023-06-10T10:40:49;3.78;;;1.98;;
54235;SDS011;40151;43.606;1.472;2023-06-10T10:43:15;5.38;;;2.00;;
54235;SDS011;40151;43.606;1.472;2023-06-10T10:45:42;6.80;;;2.33;;
54235;SDS011;40151;43.606;1.472;2023-06-10T10:48:11;10.05;;;2.95;;
54235;SDS011;40151;43.606;1.472;2023-06-10T10:50:37;16.50;;;5.18;;
54235;SDS011;40151;43.606;1.472;2023-06-10T10:53:03;10.65;;;3.70;;
54235;SDS011;40151;43.606;1.472;2023-06-10T10:55:30;7.95;;;3.17;;
54235;SDS011;40151;43.606;1.472;2023-06-10T10:57:57;8.48;;;3.22;;
54235;SDS011;40151;43.606;1.472;2023-06-10T11:00:30;9.27;;;2.97;;
54235;SDS011;40151;43.606;1.472;2023-06-10T11:03:04;7.32;;;3.00;;
54235;SDS011;40151;43.606;1.472;2023-06-10T11:08:09;10.18;;;3.17;;
54235;SDS011;40151;43.606;1.472;2023-06-10T11:10:35;11.82;;;3.75;;
54235;SDS011;40151;43.606;1.472;2023-06-10T11:13:09;9.63;;;3.17;;
54235;SDS011;40151;43.606;1.472;2023-06-10T11:15:44;10.73;;;3.38;;
54235;SDS011;40151;43.606;1.472;2023-06-10T11:18:19;10.07;;;3.60;;
54235;SDS011;40151;43.606;1.472;2023-06-10T11:25:50;12.18;;;3.58;;
54235;SDS011;40151;43.606;1.472;2023-06-10T11:28:17;11.82;;;2.97;;
54235;SDS011;40151;43.606;1.472;2023-06-10T11:30:44;10.88;;;3.17;;
54235;SDS011;40151;43.606;1.472;2023-06-10T11:33:09;13.52;;;3.88;;
54235;SDS011;40151;43.606;1.472;2023-06-10T11:35:40;13.82;;;3.60;;
54235;SDS011;40151;43.606;1.472;2023-06-10T11:38:06;10.68;;;3.50;;
54235;SDS011;40151;43.606;1.472;2023-06-10T11:40:31;11.40;;;3.33;;
54235;SDS011;40151;43.606;1.472;2023-06-10T11:42:57;11.70;;;3.72;;
54235;SDS011;40151;43.606;1.472;2023-06-10T11:45:23;94.82;;;8.40;;
54235;SDS011;40151;43.606;1.472;2023-06-10T11:47:57;13.60;;;3.33;;
54235;SDS011;40151;43.606;1.472;2023-06-10T11:50:30;12.93;;;4.15;;
54235;SDS011;40151;43.606;1.472;2023-06-10T11:52:57;11.35;;;2.92;;
54235;SDS011;40151;43.606;1.472;2023-06-10T11:55:24;9.32;;;2.80;;
54235;SDS011;40151;43.606;1.472;2023-06-10T11:57:51;6.45;;;2.75;;
54235;SDS011;40151;43.606;1.472;2023-06-10T12:00:22;10.20;;;2.65;;
54235;SDS011;40151;43.606;1.472;2023-06-10T12:02:55;7.35;;;2.90;;
54235;SDS011;40151;43.606;1.472;2023-06-10T12:05:24;7.60;;;2.70;;
54235;SDS011;40151;43.606;1.472;2023-06-10T12:07:49;5.60;;;2.55;;
54235;SDS011;40151;43.606;1.472;2023-06-10T12:10:30;4.90;;;1.88;;
54235;SDS011;40151;43.606;1.472;2023-06-10T12:12:56;5.82;;;1.88;;
54235;SDS011;40151;43.606;1.472;2023-06-10T12:15:27;4.55;;;1.88;;
54235;SDS011;40151;43.606;1.472;2023-06-10T12:17:54;4.80;;;1.88;;
54235;SDS011;40151;43.606;1.472;2023-06-10T12:20:26;6.07;;;1.98;;
54235;SDS011;40151;43.606;1.472;2023-06-10T12:22:53;4.13;;;1.90;;
54235;SDS011;40151;43.606;1.472;2023-06-10T12:25:23;6.38;;;2.15;;
54235;SDS011;40151;43.606;1.472;2023-06-10T12:27:53;5.38;;;2.17;;
54235;SDS011;40151;43.606;1.472;2023-06-10T12:30:23;5.53;;;2.15;;
54235;SDS011;40151;43.606;1.472;2023-06-10T12:32:49;5.57;;;1.60;;
54235;SDS011;40151;43.606;1.472;2023-06-10T12:35:17;3.47;;;1.55;;
54235;SDS011;40151;43.606;1.472;2023-06-10T12:38:02;5.35;;;1.75;;
54235;SDS011;40151;43.606;1.472;2023-06-10T12:40:36;3.67;;;1.67;;
54235;SDS011;40151;43.606;1.472;2023-06-10T12:43:05;5.53;;;1.92;;
54235;SDS011;40151;43.606;1.472;2023-06-10T12:45:31;5.00;;;1.88;;
54235;SDS011;40151;43.606;1.472;2023-06-10T12:53:18;2.70;;;1.73;;
54235;SDS011;40151;43.606;1.472;2023-06-10T12:55:45;3.97;;;1.60;;
54235;SDS011;40151;43.606;1.472;2023-06-10T12:58:11;2.88;;;1.40;;
54235;SDS011;40151;43.606;1.472;2023-06-10T13:00:39;3.83;;;1.40;;
54235;SDS011;40151;43.606;1.472;2023-06-10T13:03:07;3.92;;;1.52;;
54235;SDS011;40151;43.606;1.472;2023-06-10T13:05:34;2.60;;;1.38;;
54235;SDS011;40151;43.606;1.472;2023-06-10T13:08:02;4.10;;;1.70;;
54235;SDS011;40151;43.606;1.472;2023-06-10T13:10:28;3.25;;;1.10;;
54235;SDS011;40151;43.606;1.472;2023-06-10T13:12:56;2.47;;;1.30;;
54235;SDS011;40151;43.606;1.472;2023-06-10T13:15:22;2.38;;;1.27;;
54235;SDS011;40151;43.606;1.472;2023-06-10T13:17:47;3.33;;;1.65;;
54235;SDS011;40151;43.606;1.472;2023-06-10T13:20:16;2.95;;;1.00;;
54235;SDS011;40151;43.606;1.472;2023-06-10T13:22:42;3.22;;;1.50;;
54235;SDS011;40151;43.606;1.472;2023-06-10T13:25:07;3.00;;;1.67;;
54235;SDS011;40151;43.606;1.472;2023-06-10T13:27:34;4.75;;;1.95;;
54235;SDS011;40151;43.606;1.472;2023-06-10T13:30:00;6.45;;;2.70;;
54235;SDS011;40151;43.606;1.472;2023-06-10T13:32:26;9.50;;;3.35;;
54235;SDS011;40151;43.606;1.472;2023-06-10T13:34:51;3.70;;;1.77;;
54235;SDS011;40151;43.606;1.472;2023-06-10T13:37:18;2.50;;;1.27;;
54235;SDS011;40151;43.606;1.472;2023-06-10T13:39:45;3.00;;;1.30;;
54235;SDS011;40151;43.606;1.472;2023-06-10T13:42:16;3.25;;;1.38;;
54235;SDS011;40151;43.606;1.472;2023-06-10T13:44:42;2.63;;;1.45;;
54235;SDS011;40151;43.606;1.472;2023-06-10T13:47:07;2.28;;;1.40;;
54235;SDS011;40151;43.606;1.472;2023-06-10T13:49:33;4.43;;;1.73;;
54235;SDS011;40151;43.606;1.472;2023-06-10T13:52:29;7.05;;;3.40;;
54235;SDS011;40151;43.606;1.472;2023-06-10T13:54:55;2.50;;;1.45;;
54235;SDS011;40151;43.606;1.472;2023-06-10T13:57:21;5.63;;;2.05;;
54235;SDS011;40151;43.606;1.472;2023-06-10T13:59:46;4.38;;;1.50;;
54235;SDS011;40151;43.606;1.472;2023-06-10T14:02:12;3.65;;;1.55;;
54235;SDS011;40151;43.606;1.472;2023-06-10T14:04:37;2.70;;;1.33;;
54235;SDS011;40151;43.606;1.472;2023-06-10T14:07:04;2.50;;;1.50;;
54235;SDS011;40151;43.606;1.472;2023-06-10T14:09:35;4.35;;;1.77;;
54235;SDS011;40151;43.606;1.472;2023-06-10T14:12:00;2.17;;;1.10;;
54235;SDS011;40151;43.606;1.472;2023-06-10T14:14:27;4.00;;;1.77;;
54235;SDS011;40151;43.606;1.472;2023-06-10T14:16:53;4.10;;;1.40;;
54235;SDS011;40151;43.606;1.472;2023-06-10T14:19:21;2.33;;;1.33;;
54235;SDS011;40151;43.606;1.472;2023-06-10T14:21:47;3.38;;;1.35;;
54235;SDS011;40151;43.606;1.472;2023-06-10T14:24:12;5.30;;;1.58;;
54235;SDS011;40151;43.606;1.472;2023-06-10T14:26:38;3.33;;;1.30;;
54235;SDS011;40151;43.606;1.472;2023-06-10T14:29:03;2.15;;;1.17;;
54235;SDS011;40151;43.606;1.472;2023-06-10T14:31:29;2.88;;;1.50;;
54235;SDS011;40151;43.606;1.472;2023-06-10T14:33:54;2.10;;;1.08;;
54235;SDS011;40151;43.606;1.472;2023-06-10T14:36:20;3.25;;;1.30;;
54235;SDS011;40151;43.606;1.472;2023-06-10T14:38:45;3.80;;;1.30;;
54235;SDS011;40151;43.606;1.472;2023-06-10T14:41:11;2.25;;;1.30;;
54235;SDS011;40151;43.606;1.472;2023-06-10T14:43:36;3.08;;;1.38;;
54235;SDS011;40151;43.606;1.472;2023-06-10T14:46:02;3.28;;;1.60;;
54235;SDS011;40151;43.606;1.472;2023-06-10T14:48:27;4.13;;;1.17;;
54235;SDS011;40151;43.606;1.472;2023-06-10T14:50:52;2.88;;;1.40;;
54235;SDS011;40151;43.606;1.472;2023-06-10T14:53:20;2.75;;;1.52;;
54235;SDS011;40151;43.606;1.472;2023-06-10T14:55:45;2.75;;;1.42;;
54235;SDS011;40151;43.606;1.472;2023-06-10T14:58:11;2.90;;;1.25;;
54235;SDS011;40151;43.606;1.472;2023-06-10T15:00:36;2.97;;;1.20;;
54235;SDS011;40151;43.606;1.472;2023-06-10T15:03:02;4.25;;;1.30;;
54235;SDS011;40151;43.606;1.472;2023-06-10T15:05:27;2.05;;;1.10;;
54235;SDS011;40151;43.606;1.472;2023-06-10T15:07:53;2.15;;;1.00;;
54235;SDS011;40151;43.606;1.472;2023-06-10T15:10:18;2.65;;;1.17;;
54235;SDS011;40151;43.606;1.472;2023-06-10T15:12:46;2.45;;;1.10;;